sensor_id;sensor_type;location;lat;lon;timestamp;temperature;humidity
21282;DHT22;10800;53.096;18.328;2024-03-02T00:01:21;7.90;99.90
21282;DHT22;10800;53.096;18.328;2024-03-02T00:06:28;7.80;99.90
21282;DHT22;10800;53.096;18.328;2024-03-02T00:11:35;7.80;99.90
21282;DHT22;10800;53.096;18.328;2024-03-02T00:16:43;7.80;99.90
21282;DHT22;10800;53.096;18.328;2024-03-02T00:21:49;7.80;99.90
21282;DHT22;10800;53.096;18.328;2024-03-02T00:26:56;7.80;99.90
21282;DHT22;10800;53.096;18.328;2024-03-02T00:32:02;7.70;99.90
21282;DHT22;10800;53.096;18.328;2024-03-02T00:37:08;7.80;99.90
21282;DHT22;10800;53.096;18.328;2024-03-02T00:47:39;7.70;99.90
21282;DHT22;10800;53.096;18.328;2024-03-02T00:52:49;7.70;99.90
21282;DHT22;10800;53.096;18.328;2024-03-02T00:57:57;7.70;99.90
21282;DHT22;10800;53.096;18.328;2024-03-02T01:03:05;7.70;99.90
21282;DHT22;10800;53.096;18.328;2024-03-02T01:08:18;7.60;99.90
21282;DHT22;10800;53.096;18.328;2024-03-02T01:13:34;7.70;99.90
21282;DHT22;10800;53.096;18.328;2024-03-02T01:18:39;7.70;99.90
21282;DHT22;10800;53.096;18.328;2024-03-02T01:23:45;7.70;99.90
21282;DHT22;10800;53.096;18.328;2024-03-02T01:28:50;7.70;99.90
21282;DHT22;10800;53.096;18.328;2024-03-02T01:33:56;7.60;99.90
21282;DHT22;10800;53.096;18.328;2024-03-02T01:39:01;7.60;99.90
21282;DHT22;10800;53.096;18.328;2024-03-02T01:44:07;7.60;99.90
21282;DHT22;10800;53.096;18.328;2024-03-02T01:49:14;7.60;99.90
21282;DHT22;10800;53.096;18.328;2024-03-02T01:54:20;7.50;99.90
21282;DHT22;10800;53.096;18.328;2024-03-02T01:59:31;7.50;99.90
21282;DHT22;10800;53.096;18.328;2024-03-02T02:04:36;7.50;99.90
21282;DHT22;10800;53.096;18.328;2024-03-02T02:15:26;7.40;99.90
21282;DHT22;10800;53.096;18.328;2024-03-02T02:20:34;7.50;99.90
21282;DHT22;10800;53.096;18.328;2024-03-02T02:25:45;7.50;99.90
21282;DHT22;10800;53.096;18.328;2024-03-02T02:30:54;7.40;99.90
21282;DHT22;10800;53.096;18.328;2024-03-02T02:36:01;7.40;99.90
21282;DHT22;10800;53.096;18.328;2024-03-02T02:41:07;7.30;99.90
21282;DHT22;10800;53.096;18.328;2024-03-02T02:46:12;7.30;99.90
21282;DHT22;10800;53.096;18.328;2024-03-02T02:51:18;7.20;99.90
21282;DHT22;10800;53.096;18.328;2024-03-02T02:56:23;7.20;99.90
21282;DHT22;10800;53.096;18.328;2024-03-02T03:01:29;7.10;99.90
21282;DHT22;10800;53.096;18.328;2024-03-02T03:06:34;7.10;99.90
21282;DHT22;10800;53.096;18.328;2024-03-02T03:11:40;7.00;99.90
21282;DHT22;10800;53.096;18.328;2024-03-02T03:16:46;7.10;99.90
21282;DHT22;10800;53.096;18.328;2024-03-02T03:21:53;7.10;99.90
21282;DHT22;10800;53.096;18.328;2024-03-02T03:26:59;7.10;99.90
21282;DHT22;10800;53.096;18.328;2024-03-02T03:32:04;7.10;99.90
21282;DHT22;10800;53.096;18.328;2024-03-02T03:37:11;7.10;99.90
21282;DHT22;10800;53.096;18.328;2024-03-02T03:42:16;7.00;99.90
21282;DHT22;10800;53.096;18.328;2024-03-02T03:47:22;7.00;99.90
21282;DHT22;10800;53.096;18.328;2024-03-02T03:52:27;7.10;99.90
21282;DHT22;10800;53.096;18.328;2024-03-02T03:57:32;7.10;99.90
21282;DHT22;10800;53.096;18.328;2024-03-02T04:02:38;7.10;99.90
21282;DHT22;10800;53.096;18.328;2024-03-02T04:07:44;7.10;99.90
21282;DHT22;10800;53.096;18.328;2024-03-02T04:12:50;7.10;99.90
21282;DHT22;10800;53.096;18.328;2024-03-02T04:17:55;7.20;99.90
21282;DHT22;10800;53.096;18.328;2024-03-02T04:23:01;7.20;99.90
21282;DHT22;10800;53.096;18.328;2024-03-02T04:28:06;7.20;99.90
21282;DHT22;10800;53.096;18.328;2024-03-02T04:33:12;7.20;99.90
21282;DHT22;10800;53.096;18.328;2024-03-02T04:38:17;7.20;99.90
21282;DHT22;10800;53.096;18.328;2024-03-02T04:43:22;7.20;99.90
21282;DHT22;10800;53.096;18.328;2024-03-02T04:48:28;7.20;99.90
21282;DHT22;10800;53.096;18.328;2024-03-02T04:53:34;7.20;99.90
21282;DHT22;10800;53.096;18.328;2024-03-02T04:58:39;7.20;99.90
21282;DHT22;10800;53.096;18.328;2024-03-02T05:03:45;7.20;99.90
21282;DHT22;10800;53.096;18.328;2024-03-02T05:08:52;7.20;99.90
21282;DHT22;10800;53.096;18.328;2024-03-02T05:13:57;7.30;99.90
21282;DHT22;10800;53.096;18.328;2024-03-02T05:19:03;7.20;99.90
21282;DHT22;10800;53.096;18.328;2024-03-02T05:24:10;7.30;99.90
21282;DHT22;10800;53.096;18.328;2024-03-02T05:29:15;7.30;99.90
21282;DHT22;10800;53.096;18.328;2024-03-02T05:34:21;7.30;99.90
21282;DHT22;10800;53.096;18.328;2024-03-02T05:39:27;7.30;99.90
21282;DHT22;10800;53.096;18.328;2024-03-02T05:44:32;7.30;99.90
21282;DHT22;10800;53.096;18.328;2024-03-02T05:49:38;7.30;99.90
21282;DHT22;10800;53.096;18.328;2024-03-02T05:54:44;7.20;99.90
21282;DHT22;10800;53.096;18.328;2024-03-02T05:59:49;7.20;99.90
21282;DHT22;10800;53.096;18.328;2024-03-02T06:04:56;7.20;99.90
21282;DHT22;10800;53.096;18.328;2024-03-02T06:10:01;7.20;99.90
21282;DHT22;10800;53.096;18.328;2024-03-02T06:15:07;7.20;99.90
21282;DHT22;10800;53.096;18.328;2024-03-02T06:20:13;7.30;99.90
21282;DHT22;10800;53.096;18.328;2024-03-02T06:25:19;7.30;99.90
21282;DHT22;10800;53.096;18.328;2024-03-02T06:30:26;7.30;99.90
21282;DHT22;10800;53.096;18.328;2024-03-02T06:35:32;7.30;99.90
21282;DHT22;10800;53.096;18.328;2024-03-02T06:40:40;7.40;99.90
21282;DHT22;10800;53.096;18.328;2024-03-02T06:45:54;7.40;99.90
21282;DHT22;10800;53.096;18.328;2024-03-02T06:51:09;7.40;99.90
21282;DHT22;10800;53.096;18.328;2024-03-02T06:56:19;7.50;99.90
21282;DHT22;10800;53.096;18.328;2024-03-02T07:01:27;7.50;99.90
21282;DHT22;10800;53.096;18.328;2024-03-02T07:06:37;7.50;99.90
21282;DHT22;10800;53.096;18.328;2024-03-02T07:11:43;7.60;99.90
21282;DHT22;10800;53.096;18.328;2024-03-02T07:16:52;7.60;99.90
21282;DHT22;10800;53.096;18.328;2024-03-02T07:22:01;7.70;99.90
21282;DHT22;10800;53.096;18.328;2024-03-02T07:27:13;7.80;99.90
21282;DHT22;10800;53.096;18.328;2024-03-02T07:32:42;7.90;99.90
21282;DHT22;10800;53.096;18.328;2024-03-02T07:38:04;8.20;99.90
21282;DHT22;10800;53.096;18.328;2024-03-02T07:43:11;8.50;99.90
21282;DHT22;10800;53.096;18.328;2024-03-02T07:48:19;8.60;99.90
21282;DHT22;10800;53.096;18.328;2024-03-02T07:53:41;9.10;99.90
21282;DHT22;10800;53.096;18.328;2024-03-02T07:58:49;9.50;99.90
21282;DHT22;10800;53.096;18.328;2024-03-02T08:03:59;9.10;99.90
21282;DHT22;10800;53.096;18.328;2024-03-02T08:09:09;8.90;99.90
21282;DHT22;10800;53.096;18.328;2024-03-02T08:14:22;8.70;99.90
21282;DHT22;10800;53.096;18.328;2024-03-02T08:19:29;8.90;99.90
21282;DHT22;10800;53.096;18.328;2024-03-02T08:24:36;9.00;99.90
21282;DHT22;10800;53.096;18.328;2024-03-02T08:29:41;9.50;99.90
21282;DHT22;10800;53.096;18.328;2024-03-02T08:34:48;9.90;99.90
21282;DHT22;10800;53.096;18.328;2024-03-02T08:40:19;10.10;99.90
21282;DHT22;10800;53.096;18.328;2024-03-02T08:45:39;10.30;99.90
21282;DHT22;10800;53.096;18.328;2024-03-02T08:50:52;10.00;99.90
21282;DHT22;10800;53.096;18.328;2024-03-02T08:56:20;9.60;99.90
21282;DHT22;10800;53.096;18.328;2024-03-02T09:01:37;9.70;99.90
21282;DHT22;10800;53.096;18.328;2024-03-02T09:06:51;9.90;99.90
21282;DHT22;10800;53.096;18.328;2024-03-02T09:12:19;9.70;99.90
21282;DHT22;10800;53.096;18.328;2024-03-02T09:17:32;9.90;99.90
21282;DHT22;10800;53.096;18.328;2024-03-02T09:22:45;9.90;99.90
21282;DHT22;10800;53.096;18.328;2024-03-02T09:27:56;10.10;99.90
21282;DHT22;10800;53.096;18.328;2024-03-02T09:33:15;10.50;99.90
21282;DHT22;10800;53.096;18.328;2024-03-02T09:38:36;11.20;99.90
21282;DHT22;10800;53.096;18.328;2024-03-02T09:43:53;11.50;99.90
21282;DHT22;10800;53.096;18.328;2024-03-02T09:49:14;11.60;99.90
21282;DHT22;10800;53.096;18.328;2024-03-02T09:54:28;11.50;99.90
21282;DHT22;10800;53.096;18.328;2024-03-02T09:59:58;11.90;99.90
21282;DHT22;10800;53.096;18.328;2024-03-02T10:05:27;11.80;99.90
21282;DHT22;10800;53.096;18.328;2024-03-02T10:10:43;11.60;99.90
21282;DHT22;10800;53.096;18.328;2024-03-02T10:16:21;12.10;99.90
21282;DHT22;10800;53.096;18.328;2024-03-02T10:22:07;12.60;99.90
21282;DHT22;10800;53.096;18.328;2024-03-02T10:27:33;12.40;99.90
21282;DHT22;10800;53.096;18.328;2024-03-02T10:33:04;12.70;99.90
21282;DHT22;10800;53.096;18.328;2024-03-02T10:38:16;12.20;99.90
21282;DHT22;10800;53.096;18.328;2024-03-02T10:43:27;12.00;99.90
21282;DHT22;10800;53.096;18.328;2024-03-02T10:48:45;12.60;99.90
21282;DHT22;10800;53.096;18.328;2024-03-02T10:53:58;12.60;99.90
21282;DHT22;10800;53.096;18.328;2024-03-02T11:04:41;12.70;99.90
21282;DHT22;10800;53.096;18.328;2024-03-02T11:10:01;13.10;99.90
21282;DHT22;10800;53.096;18.328;2024-03-02T11:15:11;13.20;99.90
21282;DHT22;10800;53.096;18.328;2024-03-02T11:20:25;13.20;99.90
21282;DHT22;10800;53.096;18.328;2024-03-02T11:25:37;13.50;99.90
21282;DHT22;10800;53.096;18.328;2024-03-02T11:30:49;13.60;99.90
21282;DHT22;10800;53.096;18.328;2024-03-02T11:36:09;13.40;99.90
21282;DHT22;10800;53.096;18.328;2024-03-02T11:41:19;13.20;99.90
21282;DHT22;10800;53.096;18.328;2024-03-02T11:46:26;13.50;99.90
21282;DHT22;10800;53.096;18.328;2024-03-02T11:51:36;13.40;99.90
21282;DHT22;10800;53.096;18.328;2024-03-02T11:56:44;13.70;99.90
21282;DHT22;10800;53.096;18.328;2024-03-02T12:01:51;13.50;99.90
21282;DHT22;10800;53.096;18.328;2024-03-02T12:07:08;13.60;99.90
21282;DHT22;10800;53.096;18.328;2024-03-02T12:12:25;13.30;99.90
21282;DHT22;10800;53.096;18.328;2024-03-02T12:17:31;13.30;99.90
21282;DHT22;10800;53.096;18.328;2024-03-02T12:22:39;13.60;99.90
21282;DHT22;10800;53.096;18.328;2024-03-02T12:27:47;13.60;99.90
21282;DHT22;10800;53.096;18.328;2024-03-02T12:33:00;13.70;99.90
21282;DHT22;10800;53.096;18.328;2024-03-02T12:38:10;13.60;99.90
21282;DHT22;10800;53.096;18.328;2024-03-02T12:43:15;13.60;99.90
21282;DHT22;10800;53.096;18.328;2024-03-02T12:48:21;13.70;99.90
21282;DHT22;10800;53.096;18.328;2024-03-02T12:53:26;13.60;99.90
21282;DHT22;10800;53.096;18.328;2024-03-02T12:58:38;13.40;99.90
21282;DHT22;10800;53.096;18.328;2024-03-02T13:03:41;13.60;99.90
21282;DHT22;10800;53.096;18.328;2024-03-02T13:08:58;13.90;99.90
21282;DHT22;10800;53.096;18.328;2024-03-02T13:14:11;14.30;99.90
21282;DHT22;10800;53.096;18.328;2024-03-02T13:19:21;14.20;99.90
21282;DHT22;10800;53.096;18.328;2024-03-02T13:24:32;14.20;99.90
21282;DHT22;10800;53.096;18.328;2024-03-02T13:29:39;13.80;99.90
21282;DHT22;10800;53.096;18.328;2024-03-02T13:34:45;13.40;99.90
21282;DHT22;10800;53.096;18.328;2024-03-02T13:39:54;13.30;99.90
21282;DHT22;10800;53.096;18.328;2024-03-02T13:45:02;13.20;99.90
21282;DHT22;10800;53.096;18.328;2024-03-02T13:50:17;13.10;99.90
21282;DHT22;10800;53.096;18.328;2024-03-02T13:55:34;13.10;99.90
21282;DHT22;10800;53.096;18.328;2024-03-02T14:00:52;13.00;99.90
21282;DHT22;10800;53.096;18.328;2024-03-02T14:06:19;12.80;99.90
21282;DHT22;10800;53.096;18.328;2024-03-02T14:22:21;12.60;99.90
21282;DHT22;10800;53.096;18.328;2024-03-02T14:27:43;12.40;99.90
21282;DHT22;10800;53.096;18.328;2024-03-02T14:32:58;12.20;99.90
21282;DHT22;10800;53.096;18.328;2024-03-02T14:38:27;12.20;99.90
21282;DHT22;10800;53.096;18.328;2024-03-02T14:43:39;12.20;99.90
21282;DHT22;10800;53.096;18.328;2024-03-02T14:48:56;12.10;99.90
21282;DHT22;10800;53.096;18.328;2024-03-02T14:54:11;11.90;99.90
21282;DHT22;10800;53.096;18.328;2024-03-02T14:59:20;11.90;99.90
21282;DHT22;10800;53.096;18.328;2024-03-02T15:04:33;11.80;99.90
21282;DHT22;10800;53.096;18.328;2024-03-02T15:09:40;11.70;99.90
21282;DHT22;10800;53.096;18.328;2024-03-02T15:14:47;11.60;99.90
21282;DHT22;10800;53.096;18.328;2024-03-02T15:19:56;11.50;99.90
21282;DHT22;10800;53.096;18.328;2024-03-02T15:25:06;11.40;99.90
21282;DHT22;10800;53.096;18.328;2024-03-02T15:30:14;11.20;99.90
21282;DHT22;10800;53.096;18.328;2024-03-02T15:35:43;11.10;99.90
21282;DHT22;10800;53.096;18.328;2024-03-02T15:40:54;11.10;99.90
21282;DHT22;10800;53.096;18.328;2024-03-02T15:46:03;11.00;99.90
21282;DHT22;10800;53.096;18.328;2024-03-02T15:51:15;10.80;99.90
21282;DHT22;10800;53.096;18.328;2024-03-02T15:56:28;10.70;99.90
21282;DHT22;10800;53.096;18.328;2024-03-02T16:01:38;10.60;99.90
21282;DHT22;10800;53.096;18.328;2024-03-02T16:06:49;10.50;99.90
21282;DHT22;10800;53.096;18.328;2024-03-02T16:12:08;10.40;99.90
21282;DHT22;10800;53.096;18.328;2024-03-02T16:17:16;10.40;99.90
21282;DHT22;10800;53.096;18.328;2024-03-02T16:22:35;10.30;99.90
21282;DHT22;10800;53.096;18.328;2024-03-02T16:28:16;10.20;99.90
21282;DHT22;10800;53.096;18.328;2024-03-02T16:33:37;10.10;99.90
21282;DHT22;10800;53.096;18.328;2024-03-02T16:38:45;10.10;99.90
21282;DHT22;10800;53.096;18.328;2024-03-02T16:44:01;10.00;99.90
21282;DHT22;10800;53.096;18.328;2024-03-02T16:49:48;10.00;99.90
21282;DHT22;10800;53.096;18.328;2024-03-02T16:54:51;9.90;99.90
21282;DHT22;10800;53.096;18.328;2024-03-02T17:00:14;9.90;99.90
21282;DHT22;10800;53.096;18.328;2024-03-02T17:05:25;9.90;99.90
21282;DHT22;10800;53.096;18.328;2024-03-02T17:10:35;9.90;99.90
21282;DHT22;10800;53.096;18.328;2024-03-02T17:15:57;9.80;99.90
21282;DHT22;10800;53.096;18.328;2024-03-02T17:21:12;9.80;99.90
21282;DHT22;10800;53.096;18.328;2024-03-02T17:26:31;9.70;99.90
21282;DHT22;10800;53.096;18.328;2024-03-02T17:32:01;9.70;99.90
21282;DHT22;10800;53.096;18.328;2024-03-02T17:37:10;9.60;99.90
21282;DHT22;10800;53.096;18.328;2024-03-02T17:42:25;9.70;99.90
21282;DHT22;10800;53.096;18.328;2024-03-02T17:47:36;9.50;99.90
21282;DHT22;10800;53.096;18.328;2024-03-02T17:52:54;9.50;99.90
21282;DHT22;10800;53.096;18.328;2024-03-02T17:58:04;9.50;99.90
21282;DHT22;10800;53.096;18.328;2024-03-02T18:03:19;9.40;99.90
21282;DHT22;10800;53.096;18.328;2024-03-02T18:08:32;9.40;99.90
21282;DHT22;10800;53.096;18.328;2024-03-02T18:13:58;9.40;99.90
21282;DHT22;10800;53.096;18.328;2024-03-02T18:19:07;9.40;99.90
21282;DHT22;10800;53.096;18.328;2024-03-02T18:24:14;9.40;99.90
21282;DHT22;10800;53.096;18.328;2024-03-02T18:29:26;9.30;99.90
21282;DHT22;10800;53.096;18.328;2024-03-02T18:34:38;9.20;99.90
21282;DHT22;10800;53.096;18.328;2024-03-02T18:39:49;9.20;99.90
21282;DHT22;10800;53.096;18.328;2024-03-02T18:45:01;9.30;99.90
21282;DHT22;10800;53.096;18.328;2024-03-02T18:50:16;9.20;99.90
21282;DHT22;10800;53.096;18.328;2024-03-02T18:55:31;9.20;99.90
21282;DHT22;10800;53.096;18.328;2024-03-02T19:00:43;9.20;99.90
21282;DHT22;10800;53.096;18.328;2024-03-02T19:05:56;9.10;99.90
21282;DHT22;10800;53.096;18.328;2024-03-02T19:11:15;9.10;99.90
21282;DHT22;10800;53.096;18.328;2024-03-02T19:16:27;9.10;99.90
21282;DHT22;10800;53.096;18.328;2024-03-02T19:21:32;9.00;99.90
21282;DHT22;10800;53.096;18.328;2024-03-02T19:26:54;8.90;99.90
21282;DHT22;10800;53.096;18.328;2024-03-02T19:32:06;8.90;99.90
21282;DHT22;10800;53.096;18.328;2024-03-02T19:37:20;8.80;99.90
21282;DHT22;10800;53.096;18.328;2024-03-02T19:42:29;8.80;99.90
21282;DHT22;10800;53.096;18.328;2024-03-02T19:47:45;8.80;99.90
21282;DHT22;10800;53.096;18.328;2024-03-02T19:52:55;8.80;99.90
21282;DHT22;10800;53.096;18.328;2024-03-02T19:58:02;8.70;99.90
21282;DHT22;10800;53.096;18.328;2024-03-02T20:03:12;8.70;99.90
21282;DHT22;10800;53.096;18.328;2024-03-02T20:08:21;8.70;99.90
21282;DHT22;10800;53.096;18.328;2024-03-02T20:13:36;8.60;99.90
21282;DHT22;10800;53.096;18.328;2024-03-02T20:18:45;8.60;99.90
21282;DHT22;10800;53.096;18.328;2024-03-02T20:23:58;8.50;99.90
21282;DHT22;10800;53.096;18.328;2024-03-02T20:29:12;8.50;99.90
21282;DHT22;10800;53.096;18.328;2024-03-02T20:34:19;8.40;99.90
21282;DHT22;10800;53.096;18.328;2024-03-02T20:39:28;8.40;99.90
21282;DHT22;10800;53.096;18.328;2024-03-02T20:44:37;8.30;99.90
21282;DHT22;10800;53.096;18.328;2024-03-02T20:49:44;8.30;99.90
21282;DHT22;10800;53.096;18.328;2024-03-02T20:54:56;8.40;99.90
21282;DHT22;10800;53.096;18.328;2024-03-02T21:00:07;8.30;99.90
21282;DHT22;10800;53.096;18.328;2024-03-02T21:05:13;8.20;99.90
21282;DHT22;10800;53.096;18.328;2024-03-02T21:10:22;8.20;99.90
21282;DHT22;10800;53.096;18.328;2024-03-02T21:15:31;8.20;99.90
21282;DHT22;10800;53.096;18.328;2024-03-02T21:20:58;8.10;99.90
21282;DHT22;10800;53.096;18.328;2024-03-02T21:26:07;8.10;99.90
21282;DHT22;10800;53.096;18.328;2024-03-02T21:31:16;8.00;99.90
21282;DHT22;10800;53.096;18.328;2024-03-02T21:36:45;8.00;99.90
21282;DHT22;10800;53.096;18.328;2024-03-02T21:41:52;8.00;99.90
21282;DHT22;10800;53.096;18.328;2024-03-02T21:47:01;7.90;99.90
21282;DHT22;10800;53.096;18.328;2024-03-02T21:52:09;7.90;99.90
21282;DHT22;10800;53.096;18.328;2024-03-02T21:57:30;7.90;99.90
21282;DHT22;10800;53.096;18.328;2024-03-02T22:02:43;7.90;99.90
21282;DHT22;10800;53.096;18.328;2024-03-02T22:07:54;7.90;99.90
21282;DHT22;10800;53.096;18.328;2024-03-02T22:13:27;7.90;99.90
21282;DHT22;10800;53.096;18.328;2024-03-02T22:18:33;7.90;99.90
21282;DHT22;10800;53.096;18.328;2024-03-02T22:23:48;7.90;99.90
21282;DHT22;10800;53.096;18.328;2024-03-02T22:28:57;7.90;99.90
21282;DHT22;10800;53.096;18.328;2024-03-02T22:34:10;7.90;99.90
21282;DHT22;10800;53.096;18.328;2024-03-02T22:39:50;7.80;99.90
21282;DHT22;10800;53.096;18.328;2024-03-02T22:45:04;7.80;99.90
21282;DHT22;10800;53.096;18.328;2024-03-02T22:50:15;7.70;99.90
21282;DHT22;10800;53.096;18.328;2024-03-02T22:55:28;7.70;99.90
21282;DHT22;10800;53.096;18.328;2024-03-02T23:00:44;7.70;99.90
21282;DHT22;10800;53.096;18.328;2024-03-02T23:06:00;7.70;99.90
21282;DHT22;10800;53.096;18.328;2024-03-02T23:11:30;7.60;99.90
21282;DHT22;10800;53.096;18.328;2024-03-02T23:16:51;7.60;99.90
21282;DHT22;10800;53.096;18.328;2024-03-02T23:22:12;7.60;99.90
21282;DHT22;10800;53.096;18.328;2024-03-02T23:27:25;7.50;99.90
21282;DHT22;10800;53.096;18.328;2024-03-02T23:32:58;7.50;99.90
21282;DHT22;10800;53.096;18.328;2024-03-02T23:38:10;7.50;99.90
21282;DHT22;10800;53.096;18.328;2024-03-02T23:43:19;7.50;99.90
21282;DHT22;10800;53.096;18.328;2024-03-02T23:48:37;7.40;99.90
21282;DHT22;10800;53.096;18.328;2024-03-02T23:53:50;7.50;99.90
21282;DHT22;10800;53.096;18.328;2024-03-02T23:58:59;7.50;99.90
